sensor_id;sensor_type;location;lat;lon;timestamp;pressure;altitude;pressure_sealevel;temperature;humidity
69219;BME280;56232;53.384;-2.732;2022-07-29T00:02:11;101417.81;;;18.72;32.29
69219;BME280;56232;53.384;-2.732;2022-07-29T00:04:36;101416.87;;;18.04;32.35
69219;BME280;56232;53.384;-2.732;2022-07-29T00:07:03;101416.96;;;18.58;32.41
69219;BME280;56232;53.384;-2.732;2022-07-29T00:09:27;101416.91;;;17.95;32.58
69219;BME280;56232;53.384;-2.732;2022-07-29T00:11:53;101415.47;;;17.42;32.77
69219;BME280;56232;53.384;-2.732;2022-07-29T00:14:18;101415.49;;;18.01;32.69
69219;BME280;56232;53.384;-2.732;2022-07-29T00:16:44;101414.73;;;18.69;32.69
69219;BME280;56232;53.384;-2.732;2022-07-29T00:19:09;101412.61;;;18.13;32.78
69219;BME280;56232;53.384;-2.732;2022-07-29T00:21:35;101414.89;;;18.12;32.90
69219;BME280;56232;53.384;-2.732;2022-07-29T00:24:00;101414.70;;;18.01;33.00
69219;BME280;56232;53.384;-2.732;2022-07-29T00:26:26;101413.53;;;18.88;33.48
69219;BME280;56232;53.384;-2.732;2022-07-29T00:28:51;101413.65;;;17.41;33.51
69219;BME280;56232;53.384;-2.732;2022-07-29T00:31:17;101408.24;;;17.72;33.76
69219;BME280;56232;53.384;-2.732;2022-07-29T00:33:43;101404.93;;;17.98;34.16
69219;BME280;56232;53.384;-2.732;2022-07-29T00:36:08;101403.99;;;17.16;34.23
69219;BME280;56232;53.384;-2.732;2022-07-29T00:38:34;101403.43;;;17.44;34.23
69219;BME280;56232;53.384;-2.732;2022-07-29T00:40:59;101405.41;;;17.29;34.64
69219;BME280;56232;53.384;-2.732;2022-07-29T00:43:25;101401.71;;;17.23;34.79
69219;BME280;56232;53.384;-2.732;2022-07-29T00:45:50;101396.01;;;17.05;35.12
69219;BME280;56232;53.384;-2.732;2022-07-29T00:48:16;101393.30;;;16.74;35.31
69219;BME280;56232;53.384;-2.732;2022-07-29T00:50:42;101389.39;;;16.50;34.58
69219;BME280;56232;53.384;-2.732;2022-07-29T00:53:07;101387.62;;;16.85;35.46
69219;BME280;56232;53.384;-2.732;2022-07-29T00:55:32;101383.41;;;17.12;35.83
69219;BME280;56232;53.384;-2.732;2022-07-29T00:57:58;101386.55;;;15.89;36.42
69219;BME280;56232;53.384;-2.732;2022-07-29T01:00:25;101387.09;;;16.95;36.77
69219;BME280;56232;53.384;-2.732;2022-07-29T01:02:49;101386.65;;;16.84;36.87
69219;BME280;56232;53.384;-2.732;2022-07-29T01:05:17;101383.13;;;16.32;35.95
69219;BME280;56232;53.384;-2.732;2022-07-29T01:07:42;101384.14;;;15.71;36.02
69219;BME280;56232;53.384;-2.732;2022-07-29T01:10:09;101384.89;;;15.69;35.94
69219;BME280;56232;53.384;-2.732;2022-07-29T01:12:33;101385.87;;;16.36;36.67
69219;BME280;56232;53.384;-2.732;2022-07-29T01:14:56;101383.68;;;16.99;36.97
69219;BME280;56232;53.384;-2.732;2022-07-29T01:17:26;101378.83;;;16.05;36.56
69219;BME280;56232;53.384;-2.732;2022-07-29T01:19:52;101377.73;;;16.88;35.94
69219;BME280;56232;53.384;-2.732;2022-07-29T01:24:54;101383.11;;;17.57;37.13
69219;BME280;56232;53.384;-2.732;2022-07-29T01:27:14;101384.34;;;16.39;37.46
69219;BME280;56232;53.384;-2.732;2022-07-29T01:29:32;101382.26;;;16.94;37.51
69219;BME280;56232;53.384;-2.732;2022-07-29T01:31:58;101382.81;;;16.34;37.80
69219;BME280;56232;53.384;-2.732;2022-07-29T01:34:25;101386.59;;;16.36;37.65
69219;BME280;56232;53.384;-2.732;2022-07-29T01:36:50;101387.39;;;17.09;37.67
69219;BME280;56232;53.384;-2.732;2022-07-29T01:39:18;101389.01;;;16.68;37.61
69219;BME280;56232;53.384;-2.732;2022-07-29T01:41:44;101391.80;;;17.02;37.27
69219;BME280;56232;53.384;-2.732;2022-07-29T01:44:11;101393.64;;;17.24;37.18
69219;BME280;56232;53.384;-2.732;2022-07-29T01:46:33;101391.57;;;17.50;37.08
69219;BME280;56232;53.384;-2.732;2022-07-29T01:48:59;101391.94;;;17.67;37.02
69219;BME280;56232;53.384;-2.732;2022-07-29T01:51:25;101397.00;;;17.44;36.65
69219;BME280;56232;53.384;-2.732;2022-07-29T01:53:51;101399.74;;;18.13;35.73
69219;BME280;56232;53.384;-2.732;2022-07-29T01:56:13;101399.14;;;18.17;35.25
69219;BME280;56232;53.384;-2.732;2022-07-29T01:58:39;101399.16;;;18.25;35.63
69219;BME280;56232;53.384;-2.732;2022-07-29T02:01:04;101398.54;;;17.82;35.56
69219;BME280;56232;53.384;-2.732;2022-07-29T02:03:29;101399.49;;;18.44;35.61
69219;BME280;56232;53.384;-2.732;2022-07-29T02:05:55;101402.25;;;17.94;34.91
69219;BME280;56232;53.384;-2.732;2022-07-29T02:08:21;101404.22;;;17.95;34.97
69219;BME280;56232;53.384;-2.732;2022-07-29T02:10:45;101404.55;;;18.38;35.01
69219;BME280;56232;53.384;-2.732;2022-07-29T02:13:11;101407.89;;;17.96;35.30
69219;BME280;56232;53.384;-2.732;2022-07-29T02:15:36;101404.02;;;18.50;34.81
69219;BME280;56232;53.384;-2.732;2022-07-29T02:18:04;101404.86;;;17.97;35.14
69219;BME280;56232;53.384;-2.732;2022-07-29T02:20:28;101406.16;;;17.28;35.36
69219;BME280;56232;53.384;-2.732;2022-07-29T02:22:54;101403.19;;;17.64;35.61
69219;BME280;56232;53.384;-2.732;2022-07-29T02:25:18;101398.85;;;17.60;36.22
69219;BME280;56232;53.384;-2.732;2022-07-29T02:27:44;101397.14;;;17.26;36.37
69219;BME280;56232;53.384;-2.732;2022-07-29T02:30:09;101396.43;;;16.87;36.73
69219;BME280;56232;53.384;-2.732;2022-07-29T02:32:35;101395.32;;;16.76;36.81
69219;BME280;56232;53.384;-2.732;2022-07-29T02:35:01;101398.19;;;16.72;36.92
69219;BME280;56232;53.384;-2.732;2022-07-29T02:37:27;101397.10;;;16.52;37.04
69219;BME280;56232;53.384;-2.732;2022-07-29T02:39:53;101397.86;;;16.40;37.14
69219;BME280;56232;53.384;-2.732;2022-07-29T02:42:18;101397.20;;;16.93;37.04
69219;BME280;56232;53.384;-2.732;2022-07-29T02:44:44;101399.87;;;16.38;36.97
69219;BME280;56232;53.384;-2.732;2022-07-29T02:47:14;101397.99;;;17.03;36.89
69219;BME280;56232;53.384;-2.732;2022-07-29T02:49:37;101397.08;;;16.33;36.94
69219;BME280;56232;53.384;-2.732;2022-07-29T02:52:02;101395.76;;;16.15;36.65
69219;BME280;56232;53.384;-2.732;2022-07-29T02:54:31;101397.43;;;16.62;36.83
69219;BME280;56232;53.384;-2.732;2022-07-29T02:56:52;101395.50;;;15.96;37.17
69219;BME280;56232;53.384;-2.732;2022-07-29T02:59:22;101393.23;;;16.64;36.76
69219;BME280;56232;53.384;-2.732;2022-07-29T03:01:43;101394.45;;;16.55;37.15
69219;BME280;56232;53.384;-2.732;2022-07-29T03:04:08;101393.49;;;17.08;36.89
69219;BME280;56232;53.384;-2.732;2022-07-29T03:06:34;101392.65;;;17.18;36.54
69219;BME280;56232;53.384;-2.732;2022-07-29T03:09:00;101393.09;;;16.24;36.21
69219;BME280;56232;53.384;-2.732;2022-07-29T03:11:25;101389.66;;;16.37;36.07
69219;BME280;56232;53.384;-2.732;2022-07-29T03:13:50;101392.09;;;17.01;36.25
69219;BME280;56232;53.384;-2.732;2022-07-29T03:16:16;101392.18;;;16.61;35.89
69219;BME280;56232;53.384;-2.732;2022-07-29T03:18:42;101395.15;;;16.80;35.79
69219;BME280;56232;53.384;-2.732;2022-07-29T03:21:06;101390.27;;;17.80;35.73
69219;BME280;56232;53.384;-2.732;2022-07-29T03:23:32;101386.30;;;17.15;35.65
69219;BME280;56232;53.384;-2.732;2022-07-29T03:25:57;101384.26;;;16.30;35.39
69219;BME280;56232;53.384;-2.732;2022-07-29T03:28:23;101381.93;;;15.89;35.72
69219;BME280;56232;53.384;-2.732;2022-07-29T03:30:49;101382.22;;;16.01;36.09
69219;BME280;56232;53.384;-2.732;2022-07-29T03:33:14;101378.91;;;16.02;36.49
69219;BME280;56232;53.384;-2.732;2022-07-29T03:35:40;101378.49;;;16.31;35.97
69219;BME280;56232;53.384;-2.732;2022-07-29T03:38:06;101382.74;;;15.89;36.05
69219;BME280;56232;53.384;-2.732;2022-07-29T03:40:33;101386.96;;;15.88;36.57
69219;BME280;56232;53.384;-2.732;2022-07-29T03:42:58;101389.24;;;14.90;36.58
69219;BME280;56232;53.384;-2.732;2022-07-29T03:45:23;101388.01;;;15.59;36.49
69219;BME280;56232;53.384;-2.732;2022-07-29T03:47:51;101388.10;;;15.71;36.33
69219;BME280;56232;53.384;-2.732;2022-07-29T03:50:14;101390.27;;;15.84;35.87
69219;BME280;56232;53.384;-2.732;2022-07-29T03:52:39;101390.69;;;15.89;36.31
69219;BME280;56232;53.384;-2.732;2022-07-29T03:55:05;101396.09;;;16.36;35.71
69219;BME280;56232;53.384;-2.732;2022-07-29T03:57:30;101398.84;;;15.85;35.65
69219;BME280;56232;53.384;-2.732;2022-07-29T03:59:55;101400.37;;;15.95;35.56
69219;BME280;56232;53.384;-2.732;2022-07-29T04:02:21;101405.00;;;15.98;35.32
69219;BME280;56232;53.384;-2.732;2022-07-29T04:04:46;101408.38;;;15.96;35.38
69219;BME280;56232;53.384;-2.732;2022-07-29T04:07:13;101408.39;;;16.06;35.17
69219;BME280;56232;53.384;-2.732;2022-07-29T04:09:38;101410.05;;;15.98;35.27
69219;BME280;56232;53.384;-2.732;2022-07-29T04:12:04;101410.43;;;17.01;35.32
69219;BME280;56232;53.384;-2.732;2022-07-29T04:14:30;101410.33;;;15.32;35.53
69219;BME280;56232;53.384;-2.732;2022-07-29T04:16:54;101409.54;;;15.84;35.31
69219;BME280;56232;53.384;-2.732;2022-07-29T04:19:20;101413.08;;;16.23;35.29
69219;BME280;56232;53.384;-2.732;2022-07-29T04:21:46;101413.72;;;16.19;35.35
69219;BME280;56232;53.384;-2.732;2022-07-29T04:24:11;101412.62;;;15.72;35.16
69219;BME280;56232;53.384;-2.732;2022-07-29T04:26:37;101412.40;;;15.75;34.90
69219;BME280;56232;53.384;-2.732;2022-07-29T04:29:03;101412.81;;;16.21;35.14
69219;BME280;56232;53.384;-2.732;2022-07-29T04:31:28;101419.03;;;15.74;35.04
69219;BME280;56232;53.384;-2.732;2022-07-29T04:33:53;101422.72;;;16.02;34.91
69219;BME280;56232;53.384;-2.732;2022-07-29T04:36:19;101427.43;;;16.15;34.52
69219;BME280;56232;53.384;-2.732;2022-07-29T04:38:45;101428.01;;;16.18;34.46
69219;BME280;56232;53.384;-2.732;2022-07-29T04:41:10;101426.87;;;16.24;34.24
69219;BME280;56232;53.384;-2.732;2022-07-29T04:43:36;101429.41;;;16.14;34.29
69219;BME280;56232;53.384;-2.732;2022-07-29T04:46:02;101425.45;;;16.03;34.45
69219;BME280;56232;53.384;-2.732;2022-07-29T04:48:27;101427.32;;;15.42;34.54
69219;BME280;56232;53.384;-2.732;2022-07-29T04:50:53;101428.00;;;15.94;34.60
69219;BME280;56232;53.384;-2.732;2022-07-29T04:53:18;101429.45;;;15.77;34.29
69219;BME280;56232;53.384;-2.732;2022-07-29T04:55:44;101429.33;;;15.80;34.17
69219;BME280;56232;53.384;-2.732;2022-07-29T04:58:09;101434.37;;;15.80;34.00
69219;BME280;56232;53.384;-2.732;2022-07-29T05:00:35;101436.21;;;15.39;34.02
69219;BME280;56232;53.384;-2.732;2022-07-29T05:03:00;101439.74;;;15.69;34.38
69219;BME280;56232;53.384;-2.732;2022-07-29T05:05:26;101441.60;;;15.50;35.06
69219;BME280;56232;53.384;-2.732;2022-07-29T05:07:52;101442.02;;;14.96;35.91
69219;BME280;56232;53.384;-2.732;2022-07-29T05:10:17;101443.38;;;15.57;36.27
69219;BME280;56232;53.384;-2.732;2022-07-29T05:12:44;101440.85;;;14.92;36.92
69219;BME280;56232;53.384;-2.732;2022-07-29T05:15:09;101449.96;;;14.28;38.06
69219;BME280;56232;53.384;-2.732;2022-07-29T05:17:34;101452.43;;;13.87;38.91
69219;BME280;56232;53.384;-2.732;2022-07-29T05:20:00;101456.83;;;13.57;38.97
69219;BME280;56232;53.384;-2.732;2022-07-29T05:22:25;101458.92;;;13.86;39.79
69219;BME280;56232;53.384;-2.732;2022-07-29T05:24:51;101462.85;;;14.33;39.48
69219;BME280;56232;53.384;-2.732;2022-07-29T05:27:16;101461.44;;;14.08;40.40
69219;BME280;56232;53.384;-2.732;2022-07-29T05:29:43;101459.53;;;14.00;40.76
69219;BME280;56232;53.384;-2.732;2022-07-29T05:32:08;101464.61;;;13.87;41.38
69219;BME280;56232;53.384;-2.732;2022-07-29T05:34:33;101469.00;;;13.08;40.90
69219;BME280;56232;53.384;-2.732;2022-07-29T05:36:59;101469.27;;;13.64;41.40
69219;BME280;56232;53.384;-2.732;2022-07-29T05:39:24;101465.26;;;13.59;42.33
69219;BME280;56232;53.384;-2.732;2022-07-29T05:41:50;101465.72;;;13.58;42.32
69219;BME280;56232;53.384;-2.732;2022-07-29T05:44:16;101468.46;;;13.71;41.82
69219;BME280;56232;53.384;-2.732;2022-07-29T05:46:42;101471.06;;;13.84;42.66
69219;BME280;56232;53.384;-2.732;2022-07-29T05:49:07;101469.95;;;13.37;42.82
69219;BME280;56232;53.384;-2.732;2022-07-29T05:51:32;101473.22;;;14.01;42.72
69219;BME280;56232;53.384;-2.732;2022-07-29T05:53:58;101472.13;;;14.00;42.63
69219;BME280;56232;53.384;-2.732;2022-07-29T05:56:24;101476.07;;;13.38;42.77
69219;BME280;56232;53.384;-2.732;2022-07-29T05:58:49;101475.28;;;13.74;42.93
69219;BME280;56232;53.384;-2.732;2022-07-29T06:01:15;101478.08;;;12.99;43.09
69219;BME280;56232;53.384;-2.732;2022-07-29T06:03:41;101478.85;;;13.54;43.27
69219;BME280;56232;53.384;-2.732;2022-07-29T06:06:06;101479.19;;;13.53;43.62
69219;BME280;56232;53.384;-2.732;2022-07-29T06:08:32;101481.23;;;13.56;43.59
69219;BME280;56232;53.384;-2.732;2022-07-29T06:10:57;101483.05;;;12.93;44.03
69219;BME280;56232;53.384;-2.732;2022-07-29T06:13:23;101482.46;;;13.54;44.27
69219;BME280;56232;53.384;-2.732;2022-07-29T06:15:49;101488.07;;;13.72;43.66
69219;BME280;56232;53.384;-2.732;2022-07-29T06:18:14;101494.64;;;14.02;42.93
69219;BME280;56232;53.384;-2.732;2022-07-29T06:20:40;101494.95;;;14.32;42.36
69219;BME280;56232;53.384;-2.732;2022-07-29T06:23:06;101496.74;;;14.15;41.02
69219;BME280;56232;53.384;-2.732;2022-07-29T06:25:31;101492.71;;;15.06;41.06
69219;BME280;56232;53.384;-2.732;2022-07-29T06:27:57;101489.07;;;14.62;41.71
69219;BME280;56232;53.384;-2.732;2022-07-29T06:30:23;101489.77;;;14.10;42.04
69219;BME280;56232;53.384;-2.732;2022-07-29T06:32:48;101487.99;;;15.21;42.55
69219;BME280;56232;53.384;-2.732;2022-07-29T06:35:14;101488.82;;;14.32;43.17
69219;BME280;56232;53.384;-2.732;2022-07-29T06:37:40;101489.81;;;14.20;43.50
69219;BME280;56232;53.384;-2.732;2022-07-29T06:40:06;101488.80;;;14.69;43.16
69219;BME280;56232;53.384;-2.732;2022-07-29T06:42:31;101490.10;;;15.55;43.22
69219;BME280;56232;53.384;-2.732;2022-07-29T06:44:57;101495.60;;;15.23;43.39
69219;BME280;56232;53.384;-2.732;2022-07-29T06:47:22;101498.54;;;15.73;42.08
69219;BME280;56232;53.384;-2.732;2022-07-29T06:49:48;101501.62;;;16.31;42.66
69219;BME280;56232;53.384;-2.732;2022-07-29T06:52:13;101503.23;;;16.17;41.46
69219;BME280;56232;53.384;-2.732;2022-07-29T06:54:39;101502.33;;;16.52;41.75
69219;BME280;56232;53.384;-2.732;2022-07-29T06:57:04;101505.00;;;16.98;41.60
69219;BME280;56232;53.384;-2.732;2022-07-29T06:59:30;101501.12;;;16.78;41.25
69219;BME280;56232;53.384;-2.732;2022-07-29T07:01:55;101500.39;;;16.43;41.71
69219;BME280;56232;53.384;-2.732;2022-07-29T07:04:21;101500.33;;;16.79;40.23
69219;BME280;56232;53.384;-2.732;2022-07-29T07:06:47;101501.80;;;17.54;40.17
69219;BME280;56232;53.384;-2.732;2022-07-29T07:09:12;101500.09;;;17.71;39.50
69219;BME280;56232;53.384;-2.732;2022-07-29T07:11:38;101505.45;;;18.32;39.00
69219;BME280;56232;53.384;-2.732;2022-07-29T07:14:03;101505.69;;;19.10;38.24
69219;BME280;56232;53.384;-2.732;2022-07-29T07:16:29;101505.71;;;18.24;38.32
69219;BME280;56232;53.384;-2.732;2022-07-29T07:18:55;101506.84;;;18.88;38.04
69219;BME280;56232;53.384;-2.732;2022-07-29T07:21:20;101512.38;;;19.15;38.52
69219;BME280;56232;53.384;-2.732;2022-07-29T07:23:46;101515.20;;;19.02;37.64
69219;BME280;56232;53.384;-2.732;2022-07-29T07:26:12;101514.76;;;19.14;37.42
69219;BME280;56232;53.384;-2.732;2022-07-29T07:28:37;101512.75;;;20.13;36.15
69219;BME280;56232;53.384;-2.732;2022-07-29T07:31:02;101512.57;;;21.31;36.03
69219;BME280;56232;53.384;-2.732;2022-07-29T07:33:28;101512.88;;;21.88;35.86
69219;BME280;56232;53.384;-2.732;2022-07-29T07:35:53;101509.58;;;20.62;34.76
69219;BME280;56232;53.384;-2.732;2022-07-29T07:38:19;101510.80;;;21.27;34.53
69219;BME280;56232;53.384;-2.732;2022-07-29T07:40:45;101511.06;;;21.81;34.38
69219;BME280;56232;53.384;-2.732;2022-07-29T07:43:10;101508.27;;;21.35;34.09
69219;BME280;56232;53.384;-2.732;2022-07-29T07:45:35;101512.66;;;22.31;33.35
69219;BME280;56232;53.384;-2.732;2022-07-29T07:48:01;101516.65;;;22.44;33.50
69219;BME280;56232;53.384;-2.732;2022-07-29T07:50:26;101515.41;;;22.64;32.46
69219;BME280;56232;53.384;-2.732;2022-07-29T07:52:53;101514.07;;;21.89;32.93
69219;BME280;56232;53.384;-2.732;2022-07-29T07:55:19;101511.40;;;21.90;32.94
69219;BME280;56232;53.384;-2.732;2022-07-29T07:57:45;101516.75;;;21.09;32.95
69219;BME280;56232;53.384;-2.732;2022-07-29T08:00:09;101518.20;;;20.98;32.92
69219;BME280;56232;53.384;-2.732;2022-07-29T08:02:34;101519.28;;;20.71;33.54
69219;BME280;56232;53.384;-2.732;2022-07-29T08:05:00;101520.57;;;20.35;33.12
69219;BME280;56232;53.384;-2.732;2022-07-29T08:07:25;101520.73;;;21.69;33.27
69219;BME280;56232;53.384;-2.732;2022-07-29T08:09:51;101521.34;;;21.26;32.82
69219;BME280;56232;53.384;-2.732;2022-07-29T08:12:16;101522.24;;;21.47;32.52
69219;BME280;56232;53.384;-2.732;2022-07-29T08:14:43;101515.56;;;22.81;31.97
69219;BME280;56232;53.384;-2.732;2022-07-29T08:17:08;101522.67;;;24.54;31.10
69219;BME280;56232;53.384;-2.732;2022-07-29T08:19:33;101518.80;;;23.80;29.09
69219;BME280;56232;53.384;-2.732;2022-07-29T08:21:59;101520.85;;;24.02;28.45
69219;BME280;56232;53.384;-2.732;2022-07-29T08:24:24;101515.71;;;24.92;28.67
69219;BME280;56232;53.384;-2.732;2022-07-29T08:26:50;101512.75;;;26.75;26.73
69219;BME280;56232;53.384;-2.732;2022-07-29T08:29:15;101511.00;;;26.40;25.68
69219;BME280;56232;53.384;-2.732;2022-07-29T08:31:42;101513.64;;;26.23;26.13
69219;BME280;56232;53.384;-2.732;2022-07-29T08:34:07;101511.27;;;26.49;26.63
69219;BME280;56232;53.384;-2.732;2022-07-29T08:36:32;101506.16;;;26.63;25.37
69219;BME280;56232;53.384;-2.732;2022-07-29T08:38:58;101502.40;;;26.92;25.34
69219;BME280;56232;53.384;-2.732;2022-07-29T08:41:23;101499.35;;;26.31;25.08
69219;BME280;56232;53.384;-2.732;2022-07-29T08:43:49;101504.64;;;26.17;25.69
69219;BME280;56232;53.384;-2.732;2022-07-29T08:46:14;101509.00;;;26.50;26.18
69219;BME280;56232;53.384;-2.732;2022-07-29T08:48:41;101503.57;;;25.43;26.03
69219;BME280;56232;53.384;-2.732;2022-07-29T08:51:07;101503.46;;;24.73;26.72
69219;BME280;56232;53.384;-2.732;2022-07-29T08:53:31;101501.72;;;24.98;26.90
69219;BME280;56232;53.384;-2.732;2022-07-29T08:55:57;101500.14;;;24.14;27.20
69219;BME280;56232;53.384;-2.732;2022-07-29T08:58:22;101503.31;;;23.62;27.68
69219;BME280;56232;53.384;-2.732;2022-07-29T09:00:50;101497.29;;;23.60;28.29
69219;BME280;56232;53.384;-2.732;2022-07-29T09:03:17;101494.33;;;22.48;28.72
69219;BME280;56232;53.384;-2.732;2022-07-29T09:05:41;101494.18;;;23.02;28.82
69219;BME280;56232;53.384;-2.732;2022-07-29T09:08:04;101494.85;;;22.35;28.96
69219;BME280;56232;53.384;-2.732;2022-07-29T09:10:29;101499.75;;;23.60;28.29
69219;BME280;56232;53.384;-2.732;2022-07-29T09:12:55;101499.36;;;23.52;28.33
69219;BME280;56232;53.384;-2.732;2022-07-29T09:15:20;101501.20;;;23.23;28.60
69219;BME280;56232;53.384;-2.732;2022-07-29T09:17:48;101504.86;;;23.48;28.67
69219;BME280;56232;53.384;-2.732;2022-07-29T09:20:15;101506.32;;;23.52;28.78
69219;BME280;56232;53.384;-2.732;2022-07-29T09:22:37;101503.48;;;24.30;28.38
69219;BME280;56232;53.384;-2.732;2022-07-29T09:25:03;101505.72;;;24.35;27.04
69219;BME280;56232;53.384;-2.732;2022-07-29T09:27:49;101509.04;;;24.42;27.52
69219;BME280;56232;53.384;-2.732;2022-07-29T09:29:58;101509.81;;;25.29;27.11
69219;BME280;56232;53.384;-2.732;2022-07-29T09:32:19;101509.55;;;24.15;27.29
69219;BME280;56232;53.384;-2.732;2022-07-29T09:34:45;101510.65;;;24.89;27.35
69219;BME280;56232;53.384;-2.732;2022-07-29T09:37:10;101512.35;;;24.67;27.72
69219;BME280;56232;53.384;-2.732;2022-07-29T09:39:37;101509.81;;;24.29;28.14
69219;BME280;56232;53.384;-2.732;2022-07-29T09:42:03;101511.54;;;24.17;28.44
69219;BME280;56232;53.384;-2.732;2022-07-29T09:44:27;101515.09;;;23.58;27.30
69219;BME280;56232;53.384;-2.732;2022-07-29T09:46:54;101510.32;;;22.79;28.27
69219;BME280;56232;53.384;-2.732;2022-07-29T09:49:17;101512.57;;;22.72;28.70
69219;BME280;56232;53.384;-2.732;2022-07-29T09:51:44;101518.90;;;23.56;28.60
69219;BME280;56232;53.384;-2.732;2022-07-29T09:56:39;101518.90;;;23.60;28.47
69219;BME280;56232;53.384;-2.732;2022-07-29T09:59:05;101518.22;;;22.74;28.48
69219;BME280;56232;53.384;-2.732;2022-07-29T10:01:27;101521.53;;;23.93;28.83
69219;BME280;56232;53.384;-2.732;2022-07-29T10:03:51;101526.18;;;23.46;28.73
69219;BME280;56232;53.384;-2.732;2022-07-29T10:06:16;101527.87;;;23.45;28.00
69219;BME280;56232;53.384;-2.732;2022-07-29T10:08:42;101530.14;;;23.56;29.20
69219;BME280;56232;53.384;-2.732;2022-07-29T10:11:12;101529.22;;;23.07;29.09
69219;BME280;56232;53.384;-2.732;2022-07-29T10:13:32;101527.12;;;22.90;29.31
69219;BME280;56232;53.384;-2.732;2022-07-29T10:15:58;101527.45;;;23.60;29.68
69219;BME280;56232;53.384;-2.732;2022-07-29T10:18:24;101525.52;;;23.58;29.11
69219;BME280;56232;53.384;-2.732;2022-07-29T10:20:50;101527.08;;;23.89;29.44
69219;BME280;56232;53.384;-2.732;2022-07-29T10:23:15;101532.85;;;23.90;29.30
69219;BME280;56232;53.384;-2.732;2022-07-29T10:25:41;101534.09;;;23.09;29.24
69219;BME280;56232;53.384;-2.732;2022-07-29T10:28:06;101532.43;;;23.71;28.99
69219;BME280;56232;53.384;-2.732;2022-07-29T10:30:31;101529.30;;;23.97;28.79
69219;BME280;56232;53.384;-2.732;2022-07-29T10:33:09;101530.27;;;23.95;28.72
69219;BME280;56232;53.384;-2.732;2022-07-29T10:35:33;101528.96;;;23.56;28.32
69219;BME280;56232;53.384;-2.732;2022-07-29T10:38:04;101531.17;;;24.40;27.98
69219;BME280;56232;53.384;-2.732;2022-07-29T10:40:22;101529.38;;;23.93;28.46
69219;BME280;56232;53.384;-2.732;2022-07-29T10:42:40;101530.49;;;24.28;28.47
69219;BME280;56232;53.384;-2.732;2022-07-29T10:45:05;101529.72;;;24.69;28.69
69219;BME280;56232;53.384;-2.732;2022-07-29T10:47:30;101531.62;;;24.79;28.65
69219;BME280;56232;53.384;-2.732;2022-07-29T10:49:57;101531.84;;;24.08;27.90
69219;BME280;56232;53.384;-2.732;2022-07-29T10:52:21;101529.31;;;24.64;27.42
69219;BME280;56232;53.384;-2.732;2022-07-29T10:54:49;101528.01;;;25.21;28.29
69219;BME280;56232;53.384;-2.732;2022-07-29T10:57:14;101523.26;;;24.76;28.26
69219;BME280;56232;53.384;-2.732;2022-07-29T10:59:37;101519.46;;;25.44;28.23
69219;BME280;56232;53.384;-2.732;2022-07-29T11:09:19;101518.25;;;26.69;26.83
69219;BME280;56232;53.384;-2.732;2022-07-29T11:11:45;101516.97;;;26.65;25.49
69219;BME280;56232;53.384;-2.732;2022-07-29T11:14:10;101514.73;;;26.80;25.37
69219;BME280;56232;53.384;-2.732;2022-07-29T11:21:34;101514.55;;;26.61;25.79
69219;BME280;56232;53.384;-2.732;2022-07-29T11:26:18;101512.57;;;26.50;25.97
69219;BME280;56232;53.384;-2.732;2022-07-29T11:28:53;101510.84;;;27.21;25.68
69219;BME280;56232;53.384;-2.732;2022-07-29T11:31:10;101505.18;;;27.07;26.12
69219;BME280;56232;53.384;-2.732;2022-07-29T11:33:34;101500.93;;;27.03;24.89
69219;BME280;56232;53.384;-2.732;2022-07-29T11:36:07;101500.70;;;27.02;24.48
69219;BME280;56232;53.384;-2.732;2022-07-29T11:38:26;101501.01;;;27.62;24.72
69219;BME280;56232;53.384;-2.732;2022-07-29T11:45:46;101502.56;;;27.99;24.18
69219;BME280;56232;53.384;-2.732;2022-07-29T11:48:16;101502.85;;;27.87;25.01
69219;BME280;56232;53.384;-2.732;2022-07-29T11:50:35;101503.36;;;27.77;25.18
69219;BME280;56232;53.384;-2.732;2022-07-29T11:53:01;101508.69;;;28.06;25.44
69219;BME280;56232;53.384;-2.732;2022-07-29T11:55:24;101512.00;;;28.31;25.75
69219;BME280;56232;53.384;-2.732;2022-07-29T11:57:50;101511.83;;;27.94;23.90
69219;BME280;56232;53.384;-2.732;2022-07-29T12:00:21;101509.94;;;27.18;24.22
69219;BME280;56232;53.384;-2.732;2022-07-29T12:02:41;101509.15;;;27.00;25.47
69219;BME280;56232;53.384;-2.732;2022-07-29T12:05:06;101503.00;;;26.92;24.94
69219;BME280;56232;53.384;-2.732;2022-07-29T12:07:32;101500.14;;;27.52;25.65
69219;BME280;56232;53.384;-2.732;2022-07-29T12:09:56;101506.02;;;27.65;25.67
69219;BME280;56232;53.384;-2.732;2022-07-29T12:12:22;101499.00;;;28.76;24.60
69219;BME280;56232;53.384;-2.732;2022-07-29T12:14:47;101501.86;;;29.13;24.17
69219;BME280;56232;53.384;-2.732;2022-07-29T12:19:42;101500.03;;;29.86;24.57
69219;BME280;56232;53.384;-2.732;2022-07-29T12:22:03;101493.66;;;29.84;24.16
69219;BME280;56232;53.384;-2.732;2022-07-29T12:26:56;101492.77;;;29.63;23.17
69219;BME280;56232;53.384;-2.732;2022-07-29T12:29:20;101491.28;;;30.19;22.92
69219;BME280;56232;53.384;-2.732;2022-07-29T12:31:46;101491.07;;;29.77;22.32
69219;BME280;56232;53.384;-2.732;2022-07-29T12:34:11;101487.73;;;29.48;22.34
69219;BME280;56232;53.384;-2.732;2022-07-29T12:36:36;101480.92;;;29.60;22.82
69219;BME280;56232;53.384;-2.732;2022-07-29T12:39:02;101477.90;;;30.36;22.35
69219;BME280;56232;53.384;-2.732;2022-07-29T12:41:28;101479.34;;;29.89;21.63
69219;BME280;56232;53.384;-2.732;2022-07-29T12:43:54;101478.63;;;29.14;21.87
69219;BME280;56232;53.384;-2.732;2022-07-29T12:46:19;101475.91;;;29.28;22.26
69219;BME280;56232;53.384;-2.732;2022-07-29T12:48:49;101473.18;;;30.55;22.12
69219;BME280;56232;53.384;-2.732;2022-07-29T12:51:10;101467.22;;;29.75;21.73
69219;BME280;56232;53.384;-2.732;2022-07-29T12:53:36;101460.93;;;29.49;22.00
69219;BME280;56232;53.384;-2.732;2022-07-29T12:56:01;101463.72;;;29.70;21.84
69219;BME280;56232;53.384;-2.732;2022-07-29T12:58:29;101463.86;;;29.10;22.06
69219;BME280;56232;53.384;-2.732;2022-07-29T13:00:59;101465.68;;;29.37;21.92